sensor_id;sensor_type;location;lat;lon;timestamp;P1;durP1;ratioP1;P2;durP2;ratioP2
8458;SDS011;4266;48.816;9.154;2023-03-01T00:02:31;25.80;;;19.40;;
8458;SDS011;4266;48.816;9.154;2023-03-01T00:05:00;25.47;;;19.47;;
8458;SDS011;4266;48.816;9.154;2023-03-01T00:07:26;25.70;;;19.47;;
8458;SDS011;4266;48.816;9.154;2023-03-01T00:09:52;26.43;;;20.13;;
8458;SDS011;4266;48.816;9.154;2023-03-01T00:12:18;26.63;;;19.20;;
8458;SDS011;4266;48.816;9.154;2023-03-01T00:14:43;29.07;;;18.87;;
8458;SDS011;4266;48.816;9.154;2023-03-01T00:17:09;24.27;;;19.47;;
8458;SDS011;4266;48.816;9.154;2023-03-01T00:19:35;24.83;;;18.73;;
8458;SDS011;4266;48.816;9.154;2023-03-01T00:22:01;23.13;;;18.43;;
8458;SDS011;4266;48.816;9.154;2023-03-01T00:24:27;26.33;;;19.33;;
8458;SDS011;4266;48.816;9.154;2023-03-01T00:26:53;22.10;;;17.60;;
8458;SDS011;4266;48.816;9.154;2023-03-01T00:29:18;22.23;;;17.03;;
8458;SDS011;4266;48.816;9.154;2023-03-01T00:31:44;22.07;;;18.47;;
8458;SDS011;4266;48.816;9.154;2023-03-01T00:34:10;25.27;;;18.87;;
8458;SDS011;4266;48.816;9.154;2023-03-01T00:36:36;24.60;;;17.87;;
8458;SDS011;4266;48.816;9.154;2023-03-01T00:39:01;26.83;;;19.40;;
8458;SDS011;4266;48.816;9.154;2023-03-01T00:41:27;27.13;;;19.33;;
8458;SDS011;4266;48.816;9.154;2023-03-01T00:43:53;27.60;;;20.07;;
8458;SDS011;4266;48.816;9.154;2023-03-01T00:46:20;22.77;;;18.73;;
8458;SDS011;4266;48.816;9.154;2023-03-01T00:48:44;26.97;;;20.03;;
8458;SDS011;4266;48.816;9.154;2023-03-01T00:51:11;26.87;;;19.03;;
8458;SDS011;4266;48.816;9.154;2023-03-01T00:53:37;26.00;;;18.73;;
8458;SDS011;4266;48.816;9.154;2023-03-01T00:56:03;26.40;;;19.77;;
8458;SDS011;4266;48.816;9.154;2023-03-01T00:58:29;26.23;;;20.10;;
8458;SDS011;4266;48.816;9.154;2023-03-01T01:00:54;25.93;;;19.73;;
8458;SDS011;4266;48.816;9.154;2023-03-01T01:03:20;26.70;;;19.40;;
8458;SDS011;4266;48.816;9.154;2023-03-01T01:05:46;28.10;;;19.63;;
8458;SDS011;4266;48.816;9.154;2023-03-01T01:08:11;27.43;;;18.10;;
8458;SDS011;4266;48.816;9.154;2023-03-01T01:10:37;29.30;;;18.60;;
8458;SDS011;4266;48.816;9.154;2023-03-01T01:13:03;31.37;;;19.33;;
8458;SDS011;4266;48.816;9.154;2023-03-01T01:15:28;26.17;;;18.30;;
8458;SDS011;4266;48.816;9.154;2023-03-01T01:17:54;26.53;;;20.07;;
8458;SDS011;4266;48.816;9.154;2023-03-01T01:20:20;26.43;;;20.53;;
8458;SDS011;4266;48.816;9.154;2023-03-01T01:22:46;24.63;;;19.63;;
8458;SDS011;4266;48.816;9.154;2023-03-01T01:25:12;26.30;;;19.70;;
8458;SDS011;4266;48.816;9.154;2023-03-01T01:27:38;27.43;;;20.50;;
8458;SDS011;4266;48.816;9.154;2023-03-01T01:30:04;25.13;;;18.93;;
8458;SDS011;4266;48.816;9.154;2023-03-01T01:32:31;27.17;;;20.37;;
8458;SDS011;4266;48.816;9.154;2023-03-01T01:34:56;27.17;;;20.70;;
8458;SDS011;4266;48.816;9.154;2023-03-01T01:37:23;28.00;;;21.20;;
8458;SDS011;4266;48.816;9.154;2023-03-01T01:39:49;29.37;;;20.80;;
8458;SDS011;4266;48.816;9.154;2023-03-01T01:42:15;26.13;;;19.37;;
8458;SDS011;4266;48.816;9.154;2023-03-01T01:44:40;25.57;;;19.10;;
8458;SDS011;4266;48.816;9.154;2023-03-01T01:47:07;26.60;;;20.33;;
8458;SDS011;4266;48.816;9.154;2023-03-01T01:49:33;26.70;;;19.83;;
8458;SDS011;4266;48.816;9.154;2023-03-01T01:51:59;26.67;;;20.37;;
8458;SDS011;4266;48.816;9.154;2023-03-01T01:54:25;25.30;;;19.83;;
8458;SDS011;4266;48.816;9.154;2023-03-01T01:56:52;27.00;;;20.03;;
8458;SDS011;4266;48.816;9.154;2023-03-01T01:59:26;25.33;;;18.77;;
8458;SDS011;4266;48.816;9.154;2023-03-01T02:01:51;27.93;;;19.90;;
8458;SDS011;4266;48.816;9.154;2023-03-01T02:04:17;26.87;;;19.47;;
8458;SDS011;4266;48.816;9.154;2023-03-01T02:06:48;29.27;;;18.90;;
8458;SDS011;4266;48.816;9.154;2023-03-01T02:09:12;23.70;;;19.43;;
8458;SDS011;4266;48.816;9.154;2023-03-01T02:11:37;26.53;;;19.77;;
8458;SDS011;4266;48.816;9.154;2023-03-01T02:14:03;26.87;;;20.20;;
8458;SDS011;4266;48.816;9.154;2023-03-01T02:16:28;27.07;;;20.27;;
8458;SDS011;4266;48.816;9.154;2023-03-01T02:18:54;27.30;;;20.73;;
8458;SDS011;4266;48.816;9.154;2023-03-01T02:21:24;25.50;;;19.23;;
8458;SDS011;4266;48.816;9.154;2023-03-01T02:24:05;25.53;;;20.90;;
8458;SDS011;4266;48.816;9.154;2023-03-01T02:26:29;27.87;;;19.47;;
8458;SDS011;4266;48.816;9.154;2023-03-01T02:28:58;27.37;;;19.83;;
8458;SDS011;4266;48.816;9.154;2023-03-01T02:31:25;27.57;;;20.33;;
8458;SDS011;4266;48.816;9.154;2023-03-01T02:33:56;27.60;;;19.83;;
8458;SDS011;4266;48.816;9.154;2023-03-01T02:36:24;23.27;;;17.03;;
8458;SDS011;4266;48.816;9.154;2023-03-01T02:38:49;27.60;;;20.57;;
8458;SDS011;4266;48.816;9.154;2023-03-01T02:41:15;24.13;;;19.43;;
8458;SDS011;4266;48.816;9.154;2023-03-01T02:43:41;26.40;;;20.33;;
8458;SDS011;4266;48.816;9.154;2023-03-01T02:46:08;25.80;;;20.10;;
8458;SDS011;4266;48.816;9.154;2023-03-01T02:48:39;24.53;;;19.47;;
8458;SDS011;4266;48.816;9.154;2023-03-01T02:56:12;26.33;;;19.73;;
8458;SDS011;4266;48.816;9.154;2023-03-01T02:58:37;29.33;;;19.73;;
8458;SDS011;4266;48.816;9.154;2023-03-01T03:01:03;23.17;;;18.60;;
8458;SDS011;4266;48.816;9.154;2023-03-01T03:03:29;22.43;;;17.67;;
8458;SDS011;4266;48.816;9.154;2023-03-01T03:05:54;25.97;;;18.50;;
8458;SDS011;4266;48.816;9.154;2023-03-01T03:08:21;26.10;;;19.37;;
8458;SDS011;4266;48.816;9.154;2023-03-01T03:10:46;26.03;;;20.40;;
8458;SDS011;4266;48.816;9.154;2023-03-01T03:13:13;26.70;;;18.43;;
8458;SDS011;4266;48.816;9.154;2023-03-01T03:15:38;24.80;;;20.00;;
8458;SDS011;4266;48.816;9.154;2023-03-01T03:18:04;26.27;;;19.10;;
8458;SDS011;4266;48.816;9.154;2023-03-01T03:20:30;25.20;;;19.33;;
8458;SDS011;4266;48.816;9.154;2023-03-01T03:22:56;28.33;;;18.67;;
8458;SDS011;4266;48.816;9.154;2023-03-01T03:25:21;26.23;;;19.50;;
8458;SDS011;4266;48.816;9.154;2023-03-01T03:27:47;26.03;;;19.90;;
8458;SDS011;4266;48.816;9.154;2023-03-01T03:30:14;25.80;;;18.63;;
8458;SDS011;4266;48.816;9.154;2023-03-01T03:32:39;23.73;;;19.07;;
8458;SDS011;4266;48.816;9.154;2023-03-01T03:35:05;23.10;;;18.13;;
8458;SDS011;4266;48.816;9.154;2023-03-01T03:37:31;21.93;;;17.93;;
8458;SDS011;4266;48.816;9.154;2023-03-01T03:40:03;23.33;;;19.53;;
8458;SDS011;4266;48.816;9.154;2023-03-01T03:42:30;25.37;;;20.00;;
8458;SDS011;4266;48.816;9.154;2023-03-01T03:44:55;25.87;;;19.97;;
8458;SDS011;4266;48.816;9.154;2023-03-01T03:47:21;28.40;;;19.83;;
8458;SDS011;4266;48.816;9.154;2023-03-01T03:49:47;24.87;;;20.10;;
8458;SDS011;4266;48.816;9.154;2023-03-01T03:52:13;25.17;;;20.13;;
8458;SDS011;4266;48.816;9.154;2023-03-01T03:54:39;25.60;;;18.50;;
8458;SDS011;4266;48.816;9.154;2023-03-01T03:57:05;21.57;;;18.67;;
8458;SDS011;4266;48.816;9.154;2023-03-01T03:59:32;25.17;;;19.63;;
8458;SDS011;4266;48.816;9.154;2023-03-01T04:01:57;25.53;;;20.30;;
8458;SDS011;4266;48.816;9.154;2023-03-01T04:04:23;25.37;;;19.33;;
8458;SDS011;4266;48.816;9.154;2023-03-01T04:06:49;23.17;;;18.87;;
8458;SDS011;4266;48.816;9.154;2023-03-01T04:09:14;25.20;;;20.03;;
8458;SDS011;4266;48.816;9.154;2023-03-01T04:11:40;26.47;;;19.97;;
8458;SDS011;4266;48.816;9.154;2023-03-01T04:14:06;27.07;;;20.67;;
8458;SDS011;4266;48.816;9.154;2023-03-01T04:16:32;26.37;;;19.57;;
8458;SDS011;4266;48.816;9.154;2023-03-01T04:18:58;26.37;;;21.43;;
8458;SDS011;4266;48.816;9.154;2023-03-01T04:21:23;28.57;;;20.97;;
8458;SDS011;4266;48.816;9.154;2023-03-01T04:23:49;28.23;;;20.60;;
8458;SDS011;4266;48.816;9.154;2023-03-01T04:26:15;25.60;;;20.37;;
8458;SDS011;4266;48.816;9.154;2023-03-01T04:28:42;29.70;;;20.80;;
8458;SDS011;4266;48.816;9.154;2023-03-01T04:31:08;30.07;;;21.43;;
8458;SDS011;4266;48.816;9.154;2023-03-01T04:33:32;28.67;;;19.87;;
8458;SDS011;4266;48.816;9.154;2023-03-01T04:35:58;26.30;;;20.77;;
8458;SDS011;4266;48.816;9.154;2023-03-01T04:38:24;23.07;;;19.97;;
8458;SDS011;4266;48.816;9.154;2023-03-01T04:40:50;27.27;;;20.10;;
8458;SDS011;4266;48.816;9.154;2023-03-01T04:43:16;31.33;;;20.47;;
8458;SDS011;4266;48.816;9.154;2023-03-01T04:45:42;24.07;;;19.47;;
8458;SDS011;4266;48.816;9.154;2023-03-01T04:48:08;28.73;;;20.13;;
8458;SDS011;4266;48.816;9.154;2023-03-01T04:50:34;27.00;;;19.60;;
8458;SDS011;4266;48.816;9.154;2023-03-01T04:53:00;24.40;;;20.03;;
8458;SDS011;4266;48.816;9.154;2023-03-01T04:55:26;25.37;;;20.43;;
8458;SDS011;4266;48.816;9.154;2023-03-01T04:57:52;29.07;;;21.53;;
8458;SDS011;4266;48.816;9.154;2023-03-01T05:00:17;28.57;;;21.30;;
8458;SDS011;4266;48.816;9.154;2023-03-01T05:02:49;24.93;;;20.87;;
8458;SDS011;4266;48.816;9.154;2023-03-01T05:05:15;27.03;;;20.27;;
8458;SDS011;4266;48.816;9.154;2023-03-01T05:07:41;27.43;;;19.33;;
8458;SDS011;4266;48.816;9.154;2023-03-01T05:10:07;26.80;;;20.47;;
8458;SDS011;4266;48.816;9.154;2023-03-01T05:12:34;26.87;;;20.27;;
8458;SDS011;4266;48.816;9.154;2023-03-01T05:14:59;26.87;;;20.87;;
8458;SDS011;4266;48.816;9.154;2023-03-01T05:17:26;28.37;;;20.50;;
8458;SDS011;4266;48.816;9.154;2023-03-01T05:19:52;28.93;;;20.63;;
8458;SDS011;4266;48.816;9.154;2023-03-01T05:22:18;28.37;;;20.80;;
8458;SDS011;4266;48.816;9.154;2023-03-01T05:24:44;29.27;;;21.17;;
8458;SDS011;4266;48.816;9.154;2023-03-01T05:27:09;25.70;;;20.20;;
8458;SDS011;4266;48.816;9.154;2023-03-01T05:29:35;27.93;;;19.50;;
8458;SDS011;4266;48.816;9.154;2023-03-01T05:32:01;29.93;;;19.67;;
8458;SDS011;4266;48.816;9.154;2023-03-01T05:34:28;29.47;;;20.73;;
8458;SDS011;4266;48.816;9.154;2023-03-01T05:36:52;29.60;;;20.97;;
8458;SDS011;4266;48.816;9.154;2023-03-01T05:39:17;24.90;;;19.53;;
8458;SDS011;4266;48.816;9.154;2023-03-01T05:41:43;28.27;;;20.77;;
8458;SDS011;4266;48.816;9.154;2023-03-01T05:44:09;27.53;;;20.73;;
8458;SDS011;4266;48.816;9.154;2023-03-01T05:46:34;30.73;;;20.60;;
8458;SDS011;4266;48.816;9.154;2023-03-01T05:49:00;27.20;;;20.50;;
8458;SDS011;4266;48.816;9.154;2023-03-01T05:51:26;24.00;;;20.07;;
8458;SDS011;4266;48.816;9.154;2023-03-01T05:53:51;28.33;;;21.07;;
8458;SDS011;4266;48.816;9.154;2023-03-01T05:56:18;28.63;;;20.47;;
8458;SDS011;4266;48.816;9.154;2023-03-01T05:58:43;28.67;;;21.77;;
8458;SDS011;4266;48.816;9.154;2023-03-01T06:01:12;25.30;;;20.50;;
8458;SDS011;4266;48.816;9.154;2023-03-01T06:03:37;27.83;;;20.07;;
8458;SDS011;4266;48.816;9.154;2023-03-01T06:06:03;27.50;;;20.57;;
8458;SDS011;4266;48.816;9.154;2023-03-01T06:08:30;27.50;;;21.47;;
8458;SDS011;4266;48.816;9.154;2023-03-01T06:10:55;25.57;;;21.00;;
8458;SDS011;4266;48.816;9.154;2023-03-01T06:13:25;28.90;;;21.07;;
8458;SDS011;4266;48.816;9.154;2023-03-01T06:15:51;29.87;;;21.40;;
8458;SDS011;4266;48.816;9.154;2023-03-01T06:18:17;25.30;;;20.03;;
8458;SDS011;4266;48.816;9.154;2023-03-01T06:20:42;24.60;;;19.17;;
8458;SDS011;4266;48.816;9.154;2023-03-01T06:23:08;25.57;;;20.57;;
8458;SDS011;4266;48.816;9.154;2023-03-01T06:25:34;27.20;;;20.43;;
8458;SDS011;4266;48.816;9.154;2023-03-01T06:27:59;29.13;;;21.07;;
8458;SDS011;4266;48.816;9.154;2023-03-01T06:30:25;25.93;;;19.77;;
8458;SDS011;4266;48.816;9.154;2023-03-01T06:32:52;26.80;;;19.77;;
8458;SDS011;4266;48.816;9.154;2023-03-01T06:35:18;26.57;;;21.27;;
8458;SDS011;4266;48.816;9.154;2023-03-01T06:37:43;26.07;;;21.63;;
8458;SDS011;4266;48.816;9.154;2023-03-01T06:40:10;26.57;;;21.30;;
8458;SDS011;4266;48.816;9.154;2023-03-01T06:42:38;30.20;;;21.53;;
8458;SDS011;4266;48.816;9.154;2023-03-01T06:45:04;28.10;;;22.40;;
8458;SDS011;4266;48.816;9.154;2023-03-01T06:47:29;28.60;;;22.07;;
8458;SDS011;4266;48.816;9.154;2023-03-01T06:49:55;30.53;;;21.87;;
8458;SDS011;4266;48.816;9.154;2023-03-01T06:52:20;26.40;;;20.77;;
8458;SDS011;4266;48.816;9.154;2023-03-01T06:54:46;24.13;;;20.33;;
8458;SDS011;4266;48.816;9.154;2023-03-01T06:57:11;28.10;;;21.57;;
8458;SDS011;4266;48.816;9.154;2023-03-01T06:59:37;27.53;;;21.47;;
8458;SDS011;4266;48.816;9.154;2023-03-01T07:02:03;22.17;;;18.63;;
8458;SDS011;4266;48.816;9.154;2023-03-01T07:04:28;29.37;;;20.53;;
8458;SDS011;4266;48.816;9.154;2023-03-01T07:06:54;25.57;;;20.27;;
8458;SDS011;4266;48.816;9.154;2023-03-01T07:09:22;25.50;;;19.53;;
8458;SDS011;4266;48.816;9.154;2023-03-01T07:11:48;24.67;;;20.57;;
8458;SDS011;4266;48.816;9.154;2023-03-01T07:14:13;23.87;;;21.07;;
8458;SDS011;4266;48.816;9.154;2023-03-01T07:16:39;25.50;;;19.87;;
8458;SDS011;4266;48.816;9.154;2023-03-01T07:19:05;23.00;;;19.50;;
8458;SDS011;4266;48.816;9.154;2023-03-01T07:21:31;22.80;;;19.50;;
8458;SDS011;4266;48.816;9.154;2023-03-01T07:23:57;24.57;;;20.90;;
8458;SDS011;4266;48.816;9.154;2023-03-01T07:26:23;27.37;;;19.67;;
8458;SDS011;4266;48.816;9.154;2023-03-01T07:28:48;23.20;;;20.83;;
8458;SDS011;4266;48.816;9.154;2023-03-01T07:31:14;23.40;;;20.90;;
8458;SDS011;4266;48.816;9.154;2023-03-01T07:33:40;22.97;;;20.23;;
8458;SDS011;4266;48.816;9.154;2023-03-01T07:36:06;36.23;;;21.67;;
8458;SDS011;4266;48.816;9.154;2023-03-01T07:38:33;23.73;;;20.80;;
8458;SDS011;4266;48.816;9.154;2023-03-01T07:40:59;25.23;;;20.60;;
8458;SDS011;4266;48.816;9.154;2023-03-01T07:43:24;23.23;;;20.73;;
8458;SDS011;4266;48.816;9.154;2023-03-01T07:45:50;24.50;;;21.90;;
8458;SDS011;4266;48.816;9.154;2023-03-01T07:48:16;26.37;;;21.63;;
8458;SDS011;4266;48.816;9.154;2023-03-01T07:50:41;22.90;;;20.47;;
8458;SDS011;4266;48.816;9.154;2023-03-01T07:53:08;23.40;;;21.00;;
8458;SDS011;4266;48.816;9.154;2023-03-01T07:55:33;23.40;;;21.00;;
8458;SDS011;4266;48.816;9.154;2023-03-01T07:57:58;24.13;;;21.23;;
8458;SDS011;4266;48.816;9.154;2023-03-01T08:00:24;23.43;;;20.97;;
8458;SDS011;4266;48.816;9.154;2023-03-01T08:02:50;23.33;;;20.87;;
8458;SDS011;4266;48.816;9.154;2023-03-01T08:05:16;24.87;;;20.83;;
8458;SDS011;4266;48.816;9.154;2023-03-01T08:07:41;22.47;;;20.27;;
8458;SDS011;4266;48.816;9.154;2023-03-01T08:10:08;23.87;;;20.77;;
8458;SDS011;4266;48.816;9.154;2023-03-01T08:12:35;22.48;;;20.27;;
8458;SDS011;4266;48.816;9.154;2023-03-01T08:15:01;22.67;;;20.47;;
8458;SDS011;4266;48.816;9.154;2023-03-01T08:17:27;24.27;;;21.37;;
8458;SDS011;4266;48.816;9.154;2023-03-01T08:19:53;23.40;;;21.00;;
8458;SDS011;4266;48.816;9.154;2023-03-01T08:22:19;23.33;;;20.92;;
8458;SDS011;4266;48.816;9.154;2023-03-01T08:24:44;24.70;;;20.48;;
8458;SDS011;4266;48.816;9.154;2023-03-01T08:27:10;22.83;;;20.62;;
8458;SDS011;4266;48.816;9.154;2023-03-01T08:29:36;24.15;;;21.55;;
8458;SDS011;4266;48.816;9.154;2023-03-01T08:32:02;28.48;;;22.23;;
8458;SDS011;4266;48.816;9.154;2023-03-01T08:34:28;24.12;;;21.52;;
8458;SDS011;4266;48.816;9.154;2023-03-01T08:36:54;23.23;;;20.52;;
8458;SDS011;4266;48.816;9.154;2023-03-01T08:39:19;24.23;;;21.73;;
8458;SDS011;4266;48.816;9.154;2023-03-01T08:41:45;31.05;;;21.70;;
8458;SDS011;4266;48.816;9.154;2023-03-01T08:44:11;23.90;;;21.45;;
8458;SDS011;4266;48.816;9.154;2023-03-01T08:46:37;23.30;;;21.05;;
8458;SDS011;4266;48.816;9.154;2023-03-01T08:49:04;23.38;;;21.08;;
8458;SDS011;4266;48.816;9.154;2023-03-01T08:51:29;24.02;;;21.62;;
8458;SDS011;4266;48.816;9.154;2023-03-01T08:53:55;23.20;;;21.08;;
8458;SDS011;4266;48.816;9.154;2023-03-01T08:56:21;22.80;;;20.65;;
8458;SDS011;4266;48.816;9.154;2023-03-01T08:58:47;23.50;;;20.92;;
8458;SDS011;4266;48.816;9.154;2023-03-01T09:01:13;23.02;;;20.85;;
8458;SDS011;4266;48.816;9.154;2023-03-01T09:03:38;22.33;;;20.12;;
8458;SDS011;4266;48.816;9.154;2023-03-01T09:06:04;22.85;;;20.65;;
8458;SDS011;4266;48.816;9.154;2023-03-01T09:08:29;25.62;;;21.20;;
8458;SDS011;4266;48.816;9.154;2023-03-01T09:10:55;22.10;;;19.90;;
8458;SDS011;4266;48.816;9.154;2023-03-01T09:13:21;22.85;;;20.45;;
8458;SDS011;4266;48.816;9.154;2023-03-01T09:15:48;23.15;;;20.85;;
8458;SDS011;4266;48.816;9.154;2023-03-01T09:18:13;21.67;;;19.70;;
8458;SDS011;4266;48.816;9.154;2023-03-01T09:20:39;22.30;;;20.20;;
8458;SDS011;4266;48.816;9.154;2023-03-01T09:23:05;23.30;;;20.27;;
8458;SDS011;4266;48.816;9.154;2023-03-01T09:25:31;22.37;;;20.17;;
8458;SDS011;4266;48.816;9.154;2023-03-01T09:27:57;23.38;;;20.98;;
8458;SDS011;4266;48.816;9.154;2023-03-01T09:30:22;22.67;;;20.50;;
8458;SDS011;4266;48.816;9.154;2023-03-01T09:32:48;23.42;;;21.20;;
8458;SDS011;4266;48.816;9.154;2023-03-01T09:35:14;23.45;;;21.12;;
8458;SDS011;4266;48.816;9.154;2023-03-01T09:37:39;21.90;;;19.85;;
8458;SDS011;4266;48.816;9.154;2023-03-01T09:40:11;23.92;;;21.52;;
8458;SDS011;4266;48.816;9.154;2023-03-01T09:42:35;23.27;;;20.80;;
8458;SDS011;4266;48.816;9.154;2023-03-01T09:45:03;23.52;;;21.33;;
8458;SDS011;4266;48.816;9.154;2023-03-01T09:47:28;22.02;;;20.05;;
8458;SDS011;4266;48.816;9.154;2023-03-01T09:49:57;23.02;;;20.90;;
8458;SDS011;4266;48.816;9.154;2023-03-01T09:52:26;22.60;;;20.27;;
8458;SDS011;4266;48.816;9.154;2023-03-01T09:54:54;22.77;;;20.55;;
8458;SDS011;4266;48.816;9.154;2023-03-01T09:57:17;22.25;;;20.05;;
8458;SDS011;4266;48.816;9.154;2023-03-01T09:59:49;22.33;;;20.12;;
8458;SDS011;4266;48.816;9.154;2023-03-01T10:04:48;22.20;;;19.92;;
8458;SDS011;4266;48.816;9.154;2023-03-01T10:07:49;22.35;;;20.35;;
8458;SDS011;4266;48.816;9.154;2023-03-01T10:09:58;23.00;;;20.52;;
8458;SDS011;4266;48.816;9.154;2023-03-01T10:12:25;22.35;;;20.12;;
8458;SDS011;4266;48.816;9.154;2023-03-01T10:15:00;22.83;;;20.50;;
8458;SDS011;4266;48.816;9.154;2023-03-01T10:17:30;23.17;;;20.83;;
8458;SDS011;4266;48.816;9.154;2023-03-01T10:20:10;21.23;;;19.30;;
8458;SDS011;4266;48.816;9.154;2023-03-01T10:22:42;23.08;;;20.77;;
8458;SDS011;4266;48.816;9.154;2023-03-01T10:25:08;20.83;;;18.92;;
8458;SDS011;4266;48.816;9.154;2023-03-01T10:27:37;21.87;;;19.80;;
8458;SDS011;4266;48.816;9.154;2023-03-01T10:30:10;21.85;;;19.75;;
8458;SDS011;4266;48.816;9.154;2023-03-01T10:32:46;22.00;;;19.77;;
8458;SDS011;4266;48.816;9.154;2023-03-01T10:35:16;21.50;;;19.52;;
8458;SDS011;4266;48.816;9.154;2023-03-01T10:40:19;22.10;;;20.02;;
8458;SDS011;4266;48.816;9.154;2023-03-01T10:42:47;21.60;;;19.60;;
8458;SDS011;4266;48.816;9.154;2023-03-01T10:45:15;20.17;;;18.37;;
8458;SDS011;4266;48.816;9.154;2023-03-01T10:47:42;19.95;;;18.15;;
8458;SDS011;4266;48.816;9.154;2023-03-01T10:50:17;21.12;;;19.12;;
8458;SDS011;4266;48.816;9.154;2023-03-01T10:52:40;20.12;;;18.23;;
8458;SDS011;4266;48.816;9.154;2023-03-01T10:58:05;23.48;;;19.45;;
8458;SDS011;4266;48.816;9.154;2023-03-01T11:00:21;21.33;;;19.48;;
8458;SDS011;4266;48.816;9.154;2023-03-01T11:02:49;21.05;;;19.17;;
8458;SDS011;4266;48.816;9.154;2023-03-01T11:05:17;21.27;;;19.35;;
8458;SDS011;4266;48.816;9.154;2023-03-01T11:10:17;20.15;;;18.40;;
8458;SDS011;4266;48.816;9.154;2023-03-01T11:12:41;21.00;;;19.10;;
8458;SDS011;4266;48.816;9.154;2023-03-01T11:15:08;20.00;;;18.30;;
8458;SDS011;4266;48.816;9.154;2023-03-01T11:17:34;20.98;;;18.98;;
8458;SDS011;4266;48.816;9.154;2023-03-01T11:20:00;20.02;;;18.20;;
8458;SDS011;4266;48.816;9.154;2023-03-01T11:22:28;20.10;;;18.17;;
8458;SDS011;4266;48.816;9.154;2023-03-01T11:24:54;20.80;;;19.00;;
8458;SDS011;4266;48.816;9.154;2023-03-01T11:27:21;20.85;;;18.80;;
8458;SDS011;4266;48.816;9.154;2023-03-01T11:29:46;20.65;;;18.65;;
8458;SDS011;4266;48.816;9.154;2023-03-01T11:32:11;20.88;;;18.92;;
8458;SDS011;4266;48.816;9.154;2023-03-01T11:34:38;19.90;;;18.05;;
8458;SDS011;4266;48.816;9.154;2023-03-01T11:37:15;19.98;;;18.15;;
8458;SDS011;4266;48.816;9.154;2023-03-01T11:39:40;20.75;;;18.55;;
8458;SDS011;4266;48.816;9.154;2023-03-01T11:42:12;19.33;;;17.52;;
8458;SDS011;4266;48.816;9.154;2023-03-01T11:44:37;18.92;;;17.23;;
8458;SDS011;4266;48.816;9.154;2023-03-01T11:47:08;19.08;;;17.17;;
8458;SDS011;4266;48.816;9.154;2023-03-01T11:52:18;19.83;;;18.20;;
8458;SDS011;4266;48.816;9.154;2023-03-01T11:55:19;18.48;;;16.62;;
8458;SDS011;4266;48.816;9.154;2023-03-01T11:58:10;20.17;;;18.20;;
8458;SDS011;4266;48.816;9.154;2023-03-01T12:00:23;19.48;;;17.73;;
8458;SDS011;4266;48.816;9.154;2023-03-01T12:02:56;18.52;;;16.75;;
8458;SDS011;4266;48.816;9.154;2023-03-01T12:05:53;18.58;;;16.98;;
8458;SDS011;4266;48.816;9.154;2023-03-01T12:10:56;19.02;;;17.33;;
8458;SDS011;4266;48.816;9.154;2023-03-01T12:16:28;18.30;;;16.60;;
8458;SDS011;4266;48.816;9.154;2023-03-01T12:19:16;17.62;;;16.02;;
8458;SDS011;4266;48.816;9.154;2023-03-01T12:21:51;19.42;;;17.58;;
8458;SDS011;4266;48.816;9.154;2023-03-01T12:24:35;18.27;;;16.48;;
8458;SDS011;4266;48.816;9.154;2023-03-01T12:27:08;19.83;;;17.95;;
8458;SDS011;4266;48.816;9.154;2023-03-01T12:29:40;17.98;;;16.30;;
8458;SDS011;4266;48.816;9.154;2023-03-01T12:35:05;18.08;;;16.25;;
8458;SDS011;4266;48.816;9.154;2023-03-01T12:37:33;18.67;;;16.98;;
8458;SDS011;4266;48.816;9.154;2023-03-01T12:40:09;18.50;;;16.80;;
8458;SDS011;4266;48.816;9.154;2023-03-01T12:42:36;19.15;;;17.48;;
8458;SDS011;4266;48.816;9.154;2023-03-01T12:45:24;19.30;;;17.60;;
8458;SDS011;4266;48.816;9.154;2023-03-01T12:47:39;19.00;;;17.30;;
8458;SDS011;4266;48.816;9.154;2023-03-01T12:50:02;18.17;;;16.60;;
8458;SDS011;4266;48.816;9.154;2023-03-01T12:55:18;20.15;;;17.48;;
8458;SDS011;4266;48.816;9.154;2023-03-01T12:57:42;19.45;;;17.48;;
8458;SDS011;4266;48.816;9.154;2023-03-01T13:02:58;18.58;;;16.87;;
8458;SDS011;4266;48.816;9.154;2023-03-01T13:05:59;18.15;;;16.37;;
8458;SDS011;4266;48.816;9.154;2023-03-01T13:08:11;18.65;;;16.95;;
8458;SDS011;4266;48.816;9.154;2023-03-01T13:10:40;19.05;;;17.17;;
8458;SDS011;4266;48.816;9.154;2023-03-01T13:13:11;18.33;;;16.55;;
8458;SDS011;4266;48.816;9.154;2023-03-01T13:15:36;21.60;;;17.23;;
8458;SDS011;4266;48.816;9.154;2023-03-01T13:18:03;18.98;;;17.25;;
8458;SDS011;4266;48.816;9.154;2023-03-01T13:20:46;20.12;;;18.23;;
8458;SDS011;4266;48.816;9.154;2023-03-01T13:26:01;20.42;;;18.42;;
8458;SDS011;4266;48.816;9.154;2023-03-01T13:28:47;19.55;;;17.62;;
8458;SDS011;4266;48.816;9.154;2023-03-01T13:34:39;19.17;;;17.48;;
8458;SDS011;4266;48.816;9.154;2023-03-01T13:39:27;20.55;;;18.55;;
8458;SDS011;4266;48.816;9.154;2023-03-01T13:41:52;20.27;;;18.27;;
8458;SDS011;4266;48.816;9.154;2023-03-01T13:44:30;20.60;;;18.50;;
8458;SDS011;4266;48.816;9.154;2023-03-01T13:46:57;19.60;;;17.55;;
8458;SDS011;4266;48.816;9.154;2023-03-01T13:49:22;21.37;;;19.37;;
8458;SDS011;4266;48.816;9.154;2023-03-01T13:51:48;20.83;;;18.73;;
8458;SDS011;4266;48.816;9.154;2023-03-01T13:54:14;21.55;;;19.37;;
8458;SDS011;4266;48.816;9.154;2023-03-01T13:56:39;21.23;;;19.10;;
8458;SDS011;4266;48.816;9.154;2023-03-01T13:59:06;23.37;;;20.93;;
8458;SDS011;4266;48.816;9.154;2023-03-01T14:01:32;23.27;;;19.27;;
8458;SDS011;4266;48.816;9.154;2023-03-01T14:03:58;21.83;;;19.53;;
8458;SDS011;4266;48.816;9.154;2023-03-01T14:06:25;22.07;;;19.23;;
8458;SDS011;4266;48.816;9.154;2023-03-01T14:09:00;20.87;;;18.87;;
8458;SDS011;4266;48.816;9.154;2023-03-01T14:12:25;20.97;;;18.77;;
8458;SDS011;4266;48.816;9.154;2023-03-01T14:14:01;21.07;;;18.97;;
8458;SDS011;4266;48.816;9.154;2023-03-01T14:16:34;22.73;;;20.33;;
8458;SDS011;4266;48.816;9.154;2023-03-01T14:19:18;22.67;;;19.90;;
8458;SDS011;4266;48.816;9.154;2023-03-01T14:21:45;25.27;;;20.03;;
8458;SDS011;4266;48.816;9.154;2023-03-01T14:24:17;23.23;;;19.60;;
8458;SDS011;4266;48.816;9.154;2023-03-01T14:26:42;21.70;;;19.40;;
8458;SDS011;4266;48.816;9.154;2023-03-01T14:29:22;24.57;;;21.47;;
8458;SDS011;4266;48.816;9.154;2023-03-01T14:31:35;25.00;;;21.10;;
8458;SDS011;4266;48.816;9.154;2023-03-01T14:34:00;24.40;;;20.27;;
8458;SDS011;4266;48.816;9.154;2023-03-01T14:36:27;25.63;;;19.17;;
8458;SDS011;4266;48.816;9.154;2023-03-01T14:38:52;23.33;;;20.83;;
8458;SDS011;4266;48.816;9.154;2023-03-01T14:41:19;25.87;;;20.23;;
8458;SDS011;4266;48.816;9.154;2023-03-01T14:43:44;23.83;;;20.77;;
8458;SDS011;4266;48.816;9.154;2023-03-01T14:46:20;27.43;;;19.50;;
8458;SDS011;4266;48.816;9.154;2023-03-01T14:48:47;24.80;;;20.43;;
8458;SDS011;4266;48.816;9.154;2023-03-01T14:51:11;24.10;;;19.47;;
8458;SDS011;4266;48.816;9.154;2023-03-01T14:53:36;25.07;;;19.70;;
8458;SDS011;4266;48.816;9.154;2023-03-01T14:56:02;23.77;;;19.90;;
8458;SDS011;4266;48.816;9.154;2023-03-01T14:58:28;24.50;;;20.87;;
8458;SDS011;4266;48.816;9.154;2023-03-01T15:00:55;23.63;;;19.33;;
8458;SDS011;4266;48.816;9.154;2023-03-01T15:03:25;24.40;;;19.67;;
8458;SDS011;4266;48.816;9.154;2023-03-01T15:05:49;27.83;;;20.23;;
8458;SDS011;4266;48.816;9.154;2023-03-01T15:08:18;26.87;;;20.07;;
8458;SDS011;4266;48.816;9.154;2023-03-01T15:10:54;28.93;;;20.90;;
8458;SDS011;4266;48.816;9.154;2023-03-01T15:13:14;30.33;;;21.40;;
8458;SDS011;4266;48.816;9.154;2023-03-01T15:15:41;24.60;;;20.50;;
8458;SDS011;4266;48.816;9.154;2023-03-01T15:18:12;29.47;;;20.73;;
8458;SDS011;4266;48.816;9.154;2023-03-01T15:20:32;28.93;;;20.53;;
8458;SDS011;4266;48.816;9.154;2023-03-01T15:22:58;26.20;;;21.03;;
8458;SDS011;4266;48.816;9.154;2023-03-01T15:25:24;29.63;;;20.03;;
8458;SDS011;4266;48.816;9.154;2023-03-01T15:27:51;27.57;;;21.57;;
8458;SDS011;4266;48.816;9.154;2023-03-01T15:30:17;23.60;;;20.20;;